Transcenden Time — 9V8748 — position and weather

sailwx.info

Track history (hours):
 
Tides and Currents Weather Stations Pressure Air Temp Water Temp Dewpoint Dewpoint Depression Visibility Wind Speed Wind Dir Waves Ship Positions

Transcenden Time

Last reported at 2017-Dec-13 15:57 UTC. Time now 2017-Dec-17 23:38 UTC.
Position N 11°12' W 074°56'.

Length 180 m; draft 7.2 m.

Type: Cargo ship. MMSI: 564364000.

Date/timePositionNaut miles runAvg speedWind from/ knotsBaromVisibWave heightAir tempDewpointWater temp
2017-Dec-13 15:57N 11°12' W 074°56'612.3
2017-Dec-13 15:30N 11°08' W 074°53'510.3
2017-Dec-13 15:00N 11°03' W 074°50'7 0.7
2017-Dec-13 04:30N 10°58' W 074°46'0 0.0
2017-Dec-13 03:54N 10°58' W 074°46'0 0.0
2017-Dec-13 03:30N 10°58' W 074°46'0 0.0
2017-Dec-13 02:54N 10°58' W 074°46'0 0.0
2017-Dec-13 02:30N 10°58' W 074°46'0 0.0
2017-Dec-13 00:12N 10°58' W 074°46'0 0.0
2017-Dec-12 23:54N 10°58' W 074°46'0 0.0
2017-Dec-12 23:23N 10°58' W 074°46'0 0.0
2017-Dec-12 23:00N 10°58' W 074°46'0 0.0
2017-Dec-12 22:24N 10°58' W 074°46'0 0.0
2017-Dec-12 22:00N 10°58' W 074°46'0 0.0
2017-Dec-12 21:30N 10°58' W 074°46'0 0.0
2017-Dec-12 21:00N 10°58' W 074°46'0 0.0
2017-Dec-12 20:00N 10°58' W 074°46'0 0.0
2017-Dec-12 19:30N 10°58' W 074°46'0 0.0
2017-Dec-12 16:35N 10°58' W 074°46'0 0.0
2017-Dec-12 13:51N 10°58' W 074°46'0 0.0
2017-Dec-12 13:29N 10°58' W 074°46'0 0.0
2017-Dec-12 12:59N 10°58' W 074°46'0 0.0
2017-Dec-12 12:18N 10°58' W 074°46'0 0.0
2017-Dec-12 11:59N 10°58' W 074°46'0 0.0
2017-Dec-12 11:30N 10°58' W 074°46'0 0.0
2017-Dec-12 10:59N 10°58' W 074°46'0 0.0
2017-Dec-12 10:27N 10°58' W 074°46'0 0.0
2017-Dec-12 09:59N 10°58' W 074°46'0 0.0
2017-Dec-12 09:30N 10°58' W 074°46'0 0.0
2017-Dec-12 09:00N 10°58' W 074°46'0 0.0
2017-Dec-12 08:29N 10°58' W 074°46'0 0.0
2017-Dec-12 08:00N 10°58' W 074°46'0 0.0
2017-Dec-12 07:30N 10°58' W 074°46'0 0.0
2017-Dec-12 06:59N 10°58' W 074°46'0 0.0
2017-Dec-12 06:29N 10°58' W 074°46'0 0.0
2017-Dec-12 05:59N 10°58' W 074°46'0 0.0
2017-Dec-12 00:47N 10°58' W 074°46'0 0.0
2017-Dec-11 18:26N 10°58' W 074°46'0 0.0
2017-Dec-11 17:02N 10°58' W 074°46'0 0.1
2017-Dec-11 16:59N 10°58' W 074°46'0 0.0
2017-Dec-11 09:47N 10°58' W 074°46'0 0.0
2017-Dec-11 05:59N 10°58' W 074°46'0 0.0
2017-Dec-11 04:53N 10°58' W 074°46'0 0.0
2017-Dec-11 04:29N 10°58' W 074°46'0 0.0
2017-Dec-10 16:47N 10°58' W 074°46'0 0.0
2017-Dec-10 13:41N 10°58' W 074°46'0 0.0
2017-Dec-10 13:17N 10°58' W 074°46'0 0.0
2017-Dec-10 12:59N 10°58' W 074°46'0 0.0
2017-Dec-10 12:29N 10°58' W 074°46'0 0.0
2017-Dec-10 11:53N 10°58' W 074°46'0 0.0
2017-Dec-10 11:29N 10°58' W 074°46'0 0.0
2017-Dec-10 10:35N 10°58' W 074°46'0 0.0
2017-Dec-10 10:17N 10°58' W 074°46'0 0.0
2017-Dec-10 06:17N 10°58' W 074°46'0 0.0
2017-Dec-10 05:56N 10°58' W 074°46'0 0.0
2017-Dec-10 05:29N 10°58' W 074°46'0 0.0
2017-Dec-10 04:56N 10°58' W 074°46'0 0.0
2017-Dec-10 03:44N 10°58' W 074°46'0 0.0
2017-Dec-10 03:29N 10°58' W 074°46'0 0.0
2017-Dec-10 02:59N 10°58' W 074°46'0 0.0
2017-Dec-10 02:29N 10°58' W 074°46'0 0.0
2017-Dec-10 01:59N 10°58' W 074°46'0 0.0
2017-Dec-10 01:26N 10°58' W 074°46'0 0.0
2017-Dec-10 00:44N 10°58' W 074°46'0 0.0
2017-Dec-10 00:29N 10°58' W 074°46'0 0.0
2017-Dec-09 23:59N 10°58' W 074°46'0 0.0
2017-Dec-09 22:41N 10°58' W 074°46'0 0.0
2017-Dec-09 22:29N 10°58' W 074°46'0 0.0
2017-Dec-09 21:59N 10°58' W 074°46'0 0.0
2017-Dec-09 21:29N 10°58' W 074°46'0 0.0
2017-Dec-09 20:59N 10°58' W 074°46'0 0.0
2017-Dec-09 20:14N 10°58' W 074°46'0 0.0
2017-Dec-09 19:53N 10°58' W 074°46'0 0.2
2017-Dec-09 19:30N 10°58' W 074°45'2 4.6
2017-Dec-09 19:00N 11°00' W 074°46'4 7.5
2017-Dec-09 18:30N 11°02' W 074°49'3 6.8
2017-Dec-09 18:00N 11°05' W 074°51'3 6.4
2017-Dec-09 17:30N 11°07' W 074°53'4 8.8
2017-Dec-09 17:00N 11°10' W 074°50'2 4.4
2017-Dec-09 16:31N 11°11' W 074°48'510.1
2017-Dec-09 16:01N 11°14' W 074°44'510.0
2017-Dec-09 15:31N 11°16' W 074°39'  
Track history (hours):
 
Tides and Currents Weather Stations Pressure Air Temp Water Temp Dewpoint Dewpoint Depression Visibility Wind Speed Wind Dir Waves Ship Positions

Transcenden Time

Last reported at 2017-Dec-13 15:57 UTC. Time now 2017-Dec-17 23:38 UTC.
Position N 11°12' W 074°56'.

Length 180 m; draft 7.2 m.

Type: Cargo ship. MMSI: 564364000.

Date/timePositionNaut miles runAvg speedWind from/ knotsBaromVisibWave heightAir tempDewpointWater temp
2017-Dec-13 15:57N 11°12' W 074°56'612.3
2017-Dec-13 15:30N 11°08' W 074°53'510.3
2017-Dec-13 15:00N 11°03' W 074°50'7 0.7
2017-Dec-13 04:30N 10°58' W 074°46'0 0.0
2017-Dec-13 03:54N 10°58' W 074°46'0 0.0
2017-Dec-13 03:30N 10°58' W 074°46'0 0.0
2017-Dec-13 02:54N 10°58' W 074°46'0 0.0
2017-Dec-13 02:30N 10°58' W 074°46'0 0.0
2017-Dec-13 00:12N 10°58' W 074°46'0 0.0
2017-Dec-12 23:54N 10°58' W 074°46'0 0.0
2017-Dec-12 23:23N 10°58' W 074°46'0 0.0
2017-Dec-12 23:00N 10°58' W 074°46'0 0.0
2017-Dec-12 22:24N 10°58' W 074°46'0 0.0
2017-Dec-12 22:00N 10°58' W 074°46'0 0.0
2017-Dec-12 21:30N 10°58' W 074°46'0 0.0
2017-Dec-12 21:00N 10°58' W 074°46'0 0.0
2017-Dec-12 20:00N 10°58' W 074°46'0 0.0
2017-Dec-12 19:30N 10°58' W 074°46'0 0.0
2017-Dec-12 16:35N 10°58' W 074°46'0 0.0
2017-Dec-12 13:51N 10°58' W 074°46'0 0.0
2017-Dec-12 13:29N 10°58' W 074°46'0 0.0
2017-Dec-12 12:59N 10°58' W 074°46'0 0.0
2017-Dec-12 12:18N 10°58' W 074°46'0 0.0
2017-Dec-12 11:59N 10°58' W 074°46'0 0.0
2017-Dec-12 11:30N 10°58' W 074°46'0 0.0
2017-Dec-12 10:59N 10°58' W 074°46'0 0.0
2017-Dec-12 10:27N 10°58' W 074°46'0 0.0
2017-Dec-12 09:59N 10°58' W 074°46'0 0.0
2017-Dec-12 09:30N 10°58' W 074°46'0 0.0
2017-Dec-12 09:00N 10°58' W 074°46'0 0.0
2017-Dec-12 08:29N 10°58' W 074°46'0 0.0
2017-Dec-12 08:00N 10°58' W 074°46'0 0.0
2017-Dec-12 07:30N 10°58' W 074°46'0 0.0
2017-Dec-12 06:59N 10°58' W 074°46'0 0.0
2017-Dec-12 06:29N 10°58' W 074°46'0 0.0
2017-Dec-12 05:59N 10°58' W 074°46'0 0.0
2017-Dec-12 00:47N 10°58' W 074°46'0 0.0
2017-Dec-11 18:26N 10°58' W 074°46'0 0.0
2017-Dec-11 17:02N 10°58' W 074°46'0 0.1
2017-Dec-11 16:59N 10°58' W 074°46'0 0.0
2017-Dec-11 09:47N 10°58' W 074°46'0 0.0
2017-Dec-11 05:59N 10°58' W 074°46'0 0.0
2017-Dec-11 04:53N 10°58' W 074°46'0 0.0
2017-Dec-11 04:29N 10°58' W 074°46'0 0.0
2017-Dec-10 16:47N 10°58' W 074°46'0 0.0
2017-Dec-10 13:41N 10°58' W 074°46'0 0.0
2017-Dec-10 13:17N 10°58' W 074°46'0 0.0
2017-Dec-10 12:59N 10°58' W 074°46'0 0.0
2017-Dec-10 12:29N 10°58' W 074°46'0 0.0
2017-Dec-10 11:53N 10°58' W 074°46'0 0.0
2017-Dec-10 11:29N 10°58' W 074°46'0 0.0
2017-Dec-10 10:35N 10°58' W 074°46'0 0.0
2017-Dec-10 10:17N 10°58' W 074°46'0 0.0
2017-Dec-10 06:17N 10°58' W 074°46'0 0.0
2017-Dec-10 05:56N 10°58' W 074°46'0 0.0
2017-Dec-10 05:29N 10°58' W 074°46'0 0.0
2017-Dec-10 04:56N 10°58' W 074°46'0 0.0
2017-Dec-10 03:44N 10°58' W 074°46'0 0.0
2017-Dec-10 03:29N 10°58' W 074°46'0 0.0
2017-Dec-10 02:59N 10°58' W 074°46'0 0.0
2017-Dec-10 02:29N 10°58' W 074°46'0 0.0
2017-Dec-10 01:59N 10°58' W 074°46'0 0.0
2017-Dec-10 01:26N 10°58' W 074°46'0 0.0
2017-Dec-10 00:44N 10°58' W 074°46'0 0.0
2017-Dec-10 00:29N 10°58' W 074°46'0 0.0
2017-Dec-09 23:59N 10°58' W 074°46'0 0.0
2017-Dec-09 22:41N 10°58' W 074°46'0 0.0
2017-Dec-09 22:29N 10°58' W 074°46'0 0.0
2017-Dec-09 21:59N 10°58' W 074°46'0 0.0
2017-Dec-09 21:29N 10°58' W 074°46'0 0.0
2017-Dec-09 20:59N 10°58' W 074°46'0 0.0
2017-Dec-09 20:14N 10°58' W 074°46'0 0.0
2017-Dec-09 19:53N 10°58' W 074°46'0 0.2
2017-Dec-09 19:30N 10°58' W 074°45'2 4.6
2017-Dec-09 19:00N 11°00' W 074°46'4 7.5
2017-Dec-09 18:30N 11°02' W 074°49'3 6.8
2017-Dec-09 18:00N 11°05' W 074°51'3 6.4
2017-Dec-09 17:30N 11°07' W 074°53'4 8.8
2017-Dec-09 17:00N 11°10' W 074°50'2 4.4
2017-Dec-09 16:31N 11°11' W 074°48'510.1
2017-Dec-09 16:01N 11°14' W 074°44'510.0
2017-Dec-09 15:31N 11°16' W 074°39'  

Dump ship's entire track history